sensor_id;sensor_type;location;lat;lon;timestamp;temperature;humidity
20670;DHT22;10494;50.868;4.180;2023-08-24T00:00:38;21.80;99.90
20670;DHT22;10494;50.868;4.180;2023-08-24T00:03:03;21.90;99.90
20670;DHT22;10494;50.868;4.180;2023-08-24T00:05:32;21.90;99.90
20670;DHT22;10494;50.868;4.180;2023-08-24T00:07:58;21.80;99.90
20670;DHT22;10494;50.868;4.180;2023-08-24T00:10:23;21.80;99.90
20670;DHT22;10494;50.868;4.180;2023-08-24T00:12:49;21.80;99.90
20670;DHT22;10494;50.868;4.180;2023-08-24T00:15:15;21.90;99.90
20670;DHT22;10494;50.868;4.180;2023-08-24T00:17:40;21.80;99.90
20670;DHT22;10494;50.868;4.180;2023-08-24T00:20:06;21.70;99.90
20670;DHT22;10494;50.868;4.180;2023-08-24T00:22:36;21.60;99.90
20670;DHT22;10494;50.868;4.180;2023-08-24T00:25:02;21.60;99.90
20670;DHT22;10494;50.868;4.180;2023-08-24T00:27:28;21.70;99.90
20670;DHT22;10494;50.868;4.180;2023-08-24T00:29:53;21.80;99.90
20670;DHT22;10494;50.868;4.180;2023-08-24T00:32:19;21.80;99.90
20670;DHT22;10494;50.868;4.180;2023-08-24T00:34:45;21.80;99.90
20670;DHT22;10494;50.868;4.180;2023-08-24T00:37:11;21.80;99.90
20670;DHT22;10494;50.868;4.180;2023-08-24T00:39:37;21.70;99.90
20670;DHT22;10494;50.868;4.180;2023-08-24T00:42:03;21.60;99.90
20670;DHT22;10494;50.868;4.180;2023-08-24T00:44:28;21.60;99.90
20670;DHT22;10494;50.868;4.180;2023-08-24T00:46:54;21.70;99.90
20670;DHT22;10494;50.868;4.180;2023-08-24T00:49:21;21.60;99.90
20670;DHT22;10494;50.868;4.180;2023-08-24T00:51:47;21.50;99.90
20670;DHT22;10494;50.868;4.180;2023-08-24T00:54:13;21.40;99.90
20670;DHT22;10494;50.868;4.180;2023-08-24T00:56:40;21.50;99.90
20670;DHT22;10494;50.868;4.180;2023-08-24T00:59:05;21.50;99.90
20670;DHT22;10494;50.868;4.180;2023-08-24T01:01:31;21.40;99.90
20670;DHT22;10494;50.868;4.180;2023-08-24T01:03:57;21.50;99.90
20670;DHT22;10494;50.868;4.180;2023-08-24T01:06:23;21.60;99.90
20670;DHT22;10494;50.868;4.180;2023-08-24T01:08:48;21.70;99.90
20670;DHT22;10494;50.868;4.180;2023-08-24T01:11:20;21.70;99.90
20670;DHT22;10494;50.868;4.180;2023-08-24T01:16:43;21.80;99.90
20670;DHT22;10494;50.868;4.180;2023-08-24T01:19:30;22.00;99.90
20670;DHT22;10494;50.868;4.180;2023-08-24T01:22:01;22.00;99.90
20670;DHT22;10494;50.868;4.180;2023-08-24T01:24:42;22.30;99.90
20670;DHT22;10494;50.868;4.180;2023-08-24T01:27:10;22.20;99.90
20670;DHT22;10494;50.868;4.180;2023-08-24T01:29:37;22.00;99.90
20670;DHT22;10494;50.868;4.180;2023-08-24T01:32:09;22.10;99.90
20670;DHT22;10494;50.868;4.180;2023-08-24T01:34:37;22.10;99.90
20670;DHT22;10494;50.868;4.180;2023-08-24T01:37:03;22.10;99.90
20670;DHT22;10494;50.868;4.180;2023-08-24T01:39:35;22.00;99.90
20670;DHT22;10494;50.868;4.180;2023-08-24T01:42:05;22.00;99.90
20670;DHT22;10494;50.868;4.180;2023-08-24T01:44:36;21.80;99.90
20670;DHT22;10494;50.868;4.180;2023-08-24T01:47:04;21.80;99.90
20670;DHT22;10494;50.868;4.180;2023-08-24T01:49:31;21.80;99.90
20670;DHT22;10494;50.868;4.180;2023-08-24T01:51:58;21.80;99.90
20670;DHT22;10494;50.868;4.180;2023-08-24T01:54:24;21.60;99.90
20670;DHT22;10494;50.868;4.180;2023-08-24T01:56:50;21.50;99.90
20670;DHT22;10494;50.868;4.180;2023-08-24T01:59:15;21.50;99.90
20670;DHT22;10494;50.868;4.180;2023-08-24T02:01:41;21.40;99.90
20670;DHT22;10494;50.868;4.180;2023-08-24T02:04:07;21.30;99.90
20670;DHT22;10494;50.868;4.180;2023-08-24T02:06:32;21.20;99.90
20670;DHT22;10494;50.868;4.180;2023-08-24T02:08:58;21.00;99.90
20670;DHT22;10494;50.868;4.180;2023-08-24T02:11:24;20.50;99.90
20670;DHT22;10494;50.868;4.180;2023-08-24T02:13:50;20.40;99.90
20670;DHT22;10494;50.868;4.180;2023-08-24T02:16:16;20.20;99.90
20670;DHT22;10494;50.868;4.180;2023-08-24T02:18:41;20.00;99.90
20670;DHT22;10494;50.868;4.180;2023-08-24T02:21:08;19.90;99.90
20670;DHT22;10494;50.868;4.180;2023-08-24T02:23:35;19.90;99.90
20670;DHT22;10494;50.868;4.180;2023-08-24T02:26:01;20.10;99.90
20670;DHT22;10494;50.868;4.180;2023-08-24T02:28:28;20.30;99.90
20670;DHT22;10494;50.868;4.180;2023-08-24T02:30:53;20.30;99.90
20670;DHT22;10494;50.868;4.180;2023-08-24T02:33:19;20.40;99.90
20670;DHT22;10494;50.868;4.180;2023-08-24T02:35:47;20.40;99.90
20670;DHT22;10494;50.868;4.180;2023-08-24T02:38:13;20.40;99.90
20670;DHT22;10494;50.868;4.180;2023-08-24T02:40:38;20.40;99.90
20670;DHT22;10494;50.868;4.180;2023-08-24T02:43:04;20.50;99.90
20670;DHT22;10494;50.868;4.180;2023-08-24T02:45:30;20.50;99.90
20670;DHT22;10494;50.868;4.180;2023-08-24T02:47:55;20.30;99.90
20670;DHT22;10494;50.868;4.180;2023-08-24T02:50:21;20.10;99.90
20670;DHT22;10494;50.868;4.180;2023-08-24T02:52:46;20.20;99.90
20670;DHT22;10494;50.868;4.180;2023-08-24T02:55:12;20.20;99.90
20670;DHT22;10494;50.868;4.180;2023-08-24T02:57:38;20.20;99.90
20670;DHT22;10494;50.868;4.180;2023-08-24T03:00:04;20.30;99.90
20670;DHT22;10494;50.868;4.180;2023-08-24T03:02:32;20.20;99.90
20670;DHT22;10494;50.868;4.180;2023-08-24T03:04:57;20.20;99.90
20670;DHT22;10494;50.868;4.180;2023-08-24T03:07:23;20.20;99.90
20670;DHT22;10494;50.868;4.180;2023-08-24T03:09:49;20.20;99.90
20670;DHT22;10494;50.868;4.180;2023-08-24T03:12:14;20.20;99.90
20670;DHT22;10494;50.868;4.180;2023-08-24T03:14:40;20.30;99.90
20670;DHT22;10494;50.868;4.180;2023-08-24T03:17:06;20.40;99.90
20670;DHT22;10494;50.868;4.180;2023-08-24T03:19:32;20.40;99.90
20670;DHT22;10494;50.868;4.180;2023-08-24T03:21:58;20.30;99.90
20670;DHT22;10494;50.868;4.180;2023-08-24T03:24:24;20.30;99.90
20670;DHT22;10494;50.868;4.180;2023-08-24T03:26:49;20.20;99.90
20670;DHT22;10494;50.868;4.180;2023-08-24T03:29:15;20.30;99.90
20670;DHT22;10494;50.868;4.180;2023-08-24T03:31:41;20.20;99.90
20670;DHT22;10494;50.868;4.180;2023-08-24T03:34:06;20.20;99.90
20670;DHT22;10494;50.868;4.180;2023-08-24T03:36:32;20.20;99.90
20670;DHT22;10494;50.868;4.180;2023-08-24T03:38:57;20.10;99.90
20670;DHT22;10494;50.868;4.180;2023-08-24T03:41:23;20.10;99.90
20670;DHT22;10494;50.868;4.180;2023-08-24T03:43:49;20.10;99.90
20670;DHT22;10494;50.868;4.180;2023-08-24T03:46:15;20.10;99.90
20670;DHT22;10494;50.868;4.180;2023-08-24T03:48:40;20.00;99.90
20670;DHT22;10494;50.868;4.180;2023-08-24T03:51:06;20.00;99.90
20670;DHT22;10494;50.868;4.180;2023-08-24T03:53:32;20.00;99.90
20670;DHT22;10494;50.868;4.180;2023-08-24T03:55:58;19.90;99.90
20670;DHT22;10494;50.868;4.180;2023-08-24T03:58:23;19.90;99.90
20670;DHT22;10494;50.868;4.180;2023-08-24T04:00:49;19.80;99.90
20670;DHT22;10494;50.868;4.180;2023-08-24T04:03:15;19.80;99.90
20670;DHT22;10494;50.868;4.180;2023-08-24T04:05:42;19.60;99.90
20670;DHT22;10494;50.868;4.180;2023-08-24T04:08:07;19.50;99.90
20670;DHT22;10494;50.868;4.180;2023-08-24T04:10:33;19.50;99.90
20670;DHT22;10494;50.868;4.180;2023-08-24T04:12:59;19.50;99.90
20670;DHT22;10494;50.868;4.180;2023-08-24T04:15:25;19.60;99.90
20670;DHT22;10494;50.868;4.180;2023-08-24T04:17:50;19.60;99.90
20670;DHT22;10494;50.868;4.180;2023-08-24T04:20:16;19.70;99.90
20670;DHT22;10494;50.868;4.180;2023-08-24T04:22:42;19.70;99.90
20670;DHT22;10494;50.868;4.180;2023-08-24T04:25:08;19.60;99.90
20670;DHT22;10494;50.868;4.180;2023-08-24T04:27:34;19.60;99.90
20670;DHT22;10494;50.868;4.180;2023-08-24T04:30:00;19.60;99.90
20670;DHT22;10494;50.868;4.180;2023-08-24T04:32:26;19.60;99.90
20670;DHT22;10494;50.868;4.180;2023-08-24T04:34:52;19.60;99.90
20670;DHT22;10494;50.868;4.180;2023-08-24T04:37:18;19.60;99.90
20670;DHT22;10494;50.868;4.180;2023-08-24T04:39:44;19.60;99.90
20670;DHT22;10494;50.868;4.180;2023-08-24T04:42:09;19.50;99.90
20670;DHT22;10494;50.868;4.180;2023-08-24T04:44:35;19.50;99.90
20670;DHT22;10494;50.868;4.180;2023-08-24T04:47:01;19.50;99.90
20670;DHT22;10494;50.868;4.180;2023-08-24T04:49:26;19.50;99.90
20670;DHT22;10494;50.868;4.180;2023-08-24T04:51:53;19.40;99.90
20670;DHT22;10494;50.868;4.180;2023-08-24T04:54:19;19.40;99.90
20670;DHT22;10494;50.868;4.180;2023-08-24T04:56:45;19.40;99.90
20670;DHT22;10494;50.868;4.180;2023-08-24T04:59:10;19.30;99.90
20670;DHT22;10494;50.868;4.180;2023-08-24T05:01:36;19.20;99.90
20670;DHT22;10494;50.868;4.180;2023-08-24T05:04:02;19.10;99.90
20670;DHT22;10494;50.868;4.180;2023-08-24T05:06:28;19.00;99.90
20670;DHT22;10494;50.868;4.180;2023-08-24T05:08:54;19.00;99.90
20670;DHT22;10494;50.868;4.180;2023-08-24T05:11:23;18.90;99.90
20670;DHT22;10494;50.868;4.180;2023-08-24T05:13:52;18.70;99.90
20670;DHT22;10494;50.868;4.180;2023-08-24T05:16:17;18.60;99.90
20670;DHT22;10494;50.868;4.180;2023-08-24T05:18:43;18.60;99.90
20670;DHT22;10494;50.868;4.180;2023-08-24T05:21:09;18.70;99.90
20670;DHT22;10494;50.868;4.180;2023-08-24T05:23:35;18.90;99.90
20670;DHT22;10494;50.868;4.180;2023-08-24T05:26:01;18.90;99.90
20670;DHT22;10494;50.868;4.180;2023-08-24T05:28:28;19.00;99.90
20670;DHT22;10494;50.868;4.180;2023-08-24T05:30:55;19.10;99.90
20670;DHT22;10494;50.868;4.180;2023-08-24T05:33:22;19.10;99.90
20670;DHT22;10494;50.868;4.180;2023-08-24T05:35:48;19.10;99.90
20670;DHT22;10494;50.868;4.180;2023-08-24T05:38:14;19.30;99.90
20670;DHT22;10494;50.868;4.180;2023-08-24T05:40:40;19.20;99.90
20670;DHT22;10494;50.868;4.180;2023-08-24T05:43:08;19.10;99.90
20670;DHT22;10494;50.868;4.180;2023-08-24T05:45:34;19.20;99.90
20670;DHT22;10494;50.868;4.180;2023-08-24T05:47:59;19.50;99.90
20670;DHT22;10494;50.868;4.180;2023-08-24T05:50:25;19.70;99.90
20670;DHT22;10494;50.868;4.180;2023-08-24T05:52:50;19.80;99.90
20670;DHT22;10494;50.868;4.180;2023-08-24T05:55:16;19.80;99.90
20670;DHT22;10494;50.868;4.180;2023-08-24T05:57:42;20.00;99.90
20670;DHT22;10494;50.868;4.180;2023-08-24T06:00:08;20.10;99.90
20670;DHT22;10494;50.868;4.180;2023-08-24T06:02:38;20.30;99.90
20670;DHT22;10494;50.868;4.180;2023-08-24T06:05:05;20.50;99.90
20670;DHT22;10494;50.868;4.180;2023-08-24T06:07:32;20.60;99.90
20670;DHT22;10494;50.868;4.180;2023-08-24T06:09:58;20.80;99.90
20670;DHT22;10494;50.868;4.180;2023-08-24T06:12:23;20.70;99.90
20670;DHT22;10494;50.868;4.180;2023-08-24T06:14:49;20.60;99.90
20670;DHT22;10494;50.868;4.180;2023-08-24T06:17:15;20.50;99.90
20670;DHT22;10494;50.868;4.180;2023-08-24T06:19:40;20.50;99.90
20670;DHT22;10494;50.868;4.180;2023-08-24T06:22:06;20.80;99.90
20670;DHT22;10494;50.868;4.180;2023-08-24T06:24:32;21.10;99.90
20670;DHT22;10494;50.868;4.180;2023-08-24T06:26:58;21.20;99.90
20670;DHT22;10494;50.868;4.180;2023-08-24T06:29:23;20.90;99.90
20670;DHT22;10494;50.868;4.180;2023-08-24T06:31:49;20.90;99.90
20670;DHT22;10494;50.868;4.180;2023-08-24T06:34:15;21.10;99.90
20670;DHT22;10494;50.868;4.180;2023-08-24T06:36:40;21.40;99.90
20670;DHT22;10494;50.868;4.180;2023-08-24T06:39:06;21.70;99.90
20670;DHT22;10494;50.868;4.180;2023-08-24T06:41:35;21.90;99.90
20670;DHT22;10494;50.868;4.180;2023-08-24T06:44:01;22.20;99.90
20670;DHT22;10494;50.868;4.180;2023-08-24T06:46:28;22.30;99.90
20670;DHT22;10494;50.868;4.180;2023-08-24T06:48:54;22.00;99.90
20670;DHT22;10494;50.868;4.180;2023-08-24T06:51:19;21.60;99.90
20670;DHT22;10494;50.868;4.180;2023-08-24T06:53:45;21.60;99.90
20670;DHT22;10494;50.868;4.180;2023-08-24T06:56:13;22.10;99.90
20670;DHT22;10494;50.868;4.180;2023-08-24T06:58:40;22.50;99.90
20670;DHT22;10494;50.868;4.180;2023-08-24T07:01:06;23.00;99.90
20670;DHT22;10494;50.868;4.180;2023-08-24T07:03:32;23.50;99.90
20670;DHT22;10494;50.868;4.180;2023-08-24T07:05:59;23.90;99.90
20670;DHT22;10494;50.868;4.180;2023-08-24T07:08:24;23.90;99.90
20670;DHT22;10494;50.868;4.180;2023-08-24T07:10:50;24.10;99.90
20670;DHT22;10494;50.868;4.180;2023-08-24T07:13:16;24.00;99.90
20670;DHT22;10494;50.868;4.180;2023-08-24T07:15:42;23.60;99.90
20670;DHT22;10494;50.868;4.180;2023-08-24T07:18:08;23.90;99.90
20670;DHT22;10494;50.868;4.180;2023-08-24T07:20:35;24.30;99.90
20670;DHT22;10494;50.868;4.180;2023-08-24T07:23:01;24.50;99.90
20670;DHT22;10494;50.868;4.180;2023-08-24T07:25:27;24.60;99.90
20670;DHT22;10494;50.868;4.180;2023-08-24T07:27:55;24.10;99.90
20670;DHT22;10494;50.868;4.180;2023-08-24T07:30:27;24.00;99.90
20670;DHT22;10494;50.868;4.180;2023-08-24T07:32:54;24.30;99.90
20670;DHT22;10494;50.868;4.180;2023-08-24T07:35:20;24.40;99.90
20670;DHT22;10494;50.868;4.180;2023-08-24T07:37:49;24.40;99.90
20670;DHT22;10494;50.868;4.180;2023-08-24T07:40:14;24.40;99.90
20670;DHT22;10494;50.868;4.180;2023-08-24T07:42:49;24.50;99.90
20670;DHT22;10494;50.868;4.180;2023-08-24T07:45:22;24.30;99.90
20670;DHT22;10494;50.868;4.180;2023-08-24T07:47:48;24.30;99.90
20670;DHT22;10494;50.868;4.180;2023-08-24T07:50:14;23.90;99.90
20670;DHT22;10494;50.868;4.180;2023-08-24T07:52:40;23.80;99.90
20670;DHT22;10494;50.868;4.180;2023-08-24T07:55:07;23.70;99.90
20670;DHT22;10494;50.868;4.180;2023-08-24T07:57:37;23.70;99.90
20670;DHT22;10494;50.868;4.180;2023-08-24T08:00:04;23.80;99.90
20670;DHT22;10494;50.868;4.180;2023-08-24T08:02:30;23.60;99.90
20670;DHT22;10494;50.868;4.180;2023-08-24T08:04:58;23.70;99.90
20670;DHT22;10494;50.868;4.180;2023-08-24T08:07:25;24.10;99.90
20670;DHT22;10494;50.868;4.180;2023-08-24T08:09:51;24.40;99.90
20670;DHT22;10494;50.868;4.180;2023-08-24T08:12:17;24.70;99.90
20670;DHT22;10494;50.868;4.180;2023-08-24T08:14:42;24.80;99.90
20670;DHT22;10494;50.868;4.180;2023-08-24T08:17:08;25.00;99.90
20670;DHT22;10494;50.868;4.180;2023-08-24T08:19:34;25.10;99.90
20670;DHT22;10494;50.868;4.180;2023-08-24T08:22:01;25.20;99.90
20670;DHT22;10494;50.868;4.180;2023-08-24T08:24:27;25.30;99.90
20670;DHT22;10494;50.868;4.180;2023-08-24T08:26:52;25.30;99.90
20670;DHT22;10494;50.868;4.180;2023-08-24T08:29:18;25.30;99.90
20670;DHT22;10494;50.868;4.180;2023-08-24T08:31:44;25.40;99.90
20670;DHT22;10494;50.868;4.180;2023-08-24T08:34:09;25.30;99.90
20670;DHT22;10494;50.868;4.180;2023-08-24T08:36:35;25.30;99.90
20670;DHT22;10494;50.868;4.180;2023-08-24T08:39:00;25.40;99.90
20670;DHT22;10494;50.868;4.180;2023-08-24T08:41:30;25.40;99.90
20670;DHT22;10494;50.868;4.180;2023-08-24T08:43:56;25.50;99.90
20670;DHT22;10494;50.868;4.180;2023-08-24T08:46:22;25.40;99.90
20670;DHT22;10494;50.868;4.180;2023-08-24T08:48:49;25.50;99.90
20670;DHT22;10494;50.868;4.180;2023-08-24T08:51:16;25.50;99.90
20670;DHT22;10494;50.868;4.180;2023-08-24T08:53:42;25.50;99.90
20670;DHT22;10494;50.868;4.180;2023-08-24T08:56:08;25.60;99.90
20670;DHT22;10494;50.868;4.180;2023-08-24T08:58:35;25.60;99.90
20670;DHT22;10494;50.868;4.180;2023-08-24T09:01:03;25.70;99.90
20670;DHT22;10494;50.868;4.180;2023-08-24T09:03:31;25.70;99.90
20670;DHT22;10494;50.868;4.180;2023-08-24T09:05:57;25.70;99.90
20670;DHT22;10494;50.868;4.180;2023-08-24T09:08:25;25.70;99.90
20670;DHT22;10494;50.868;4.180;2023-08-24T09:10:51;25.60;99.90
20670;DHT22;10494;50.868;4.180;2023-08-24T09:13:17;25.50;99.90
20670;DHT22;10494;50.868;4.180;2023-08-24T09:15:43;25.40;99.90
20670;DHT22;10494;50.868;4.180;2023-08-24T09:18:08;25.30;99.90
20670;DHT22;10494;50.868;4.180;2023-08-24T09:20:34;25.20;99.90
20670;DHT22;10494;50.868;4.180;2023-08-24T09:23:00;25.10;99.90
20670;DHT22;10494;50.868;4.180;2023-08-24T09:25:26;24.90;99.90
20670;DHT22;10494;50.868;4.180;2023-08-24T09:28:02;24.80;99.90
20670;DHT22;10494;50.868;4.180;2023-08-24T09:30:36;24.70;99.90
20670;DHT22;10494;50.868;4.180;2023-08-24T09:33:04;24.20;99.90
20670;DHT22;10494;50.868;4.180;2023-08-24T09:35:34;23.70;99.90
20670;DHT22;10494;50.868;4.180;2023-08-24T09:38:22;23.10;99.90
20670;DHT22;10494;50.868;4.180;2023-08-24T09:40:53;22.70;99.90
20670;DHT22;10494;50.868;4.180;2023-08-24T09:43:19;22.40;99.90
20670;DHT22;10494;50.868;4.180;2023-08-24T09:48:15;22.00;99.90
20670;DHT22;10494;50.868;4.180;2023-08-24T09:50:43;21.90;99.90
20670;DHT22;10494;50.868;4.180;2023-08-24T09:53:16;21.70;99.90
20670;DHT22;10494;50.868;4.180;2023-08-24T09:55:54;21.60;99.90
20670;DHT22;10494;50.868;4.180;2023-08-24T09:58:22;21.40;99.90
20670;DHT22;10494;50.868;4.180;2023-08-24T10:00:49;21.30;99.90
20670;DHT22;10494;50.868;4.180;2023-08-24T10:03:18;21.20;99.90
20670;DHT22;10494;50.868;4.180;2023-08-24T10:05:51;21.10;99.90
20670;DHT22;10494;50.868;4.180;2023-08-24T10:08:21;21.00;99.90
20670;DHT22;10494;50.868;4.180;2023-08-24T10:10:51;20.90;99.90
20670;DHT22;10494;50.868;4.180;2023-08-24T10:13:23;20.90;99.90
20670;DHT22;10494;50.868;4.180;2023-08-24T10:15:52;20.80;99.90
20670;DHT22;10494;50.868;4.180;2023-08-24T10:18:19;20.60;99.90
20670;DHT22;10494;50.868;4.180;2023-08-24T10:20:46;20.40;99.90
20670;DHT22;10494;50.868;4.180;2023-08-24T10:23:15;20.30;99.90
20670;DHT22;10494;50.868;4.180;2023-08-24T10:25:42;20.20;99.90
20670;DHT22;10494;50.868;4.180;2023-08-24T10:28:10;20.30;99.90
20670;DHT22;10494;50.868;4.180;2023-08-24T10:30:37;20.50;99.90
20670;DHT22;10494;50.868;4.180;2023-08-24T10:33:05;20.70;99.90
20670;DHT22;10494;50.868;4.180;2023-08-24T10:35:32;20.70;99.90
20670;DHT22;10494;50.868;4.180;2023-08-24T10:37:58;20.80;99.90
20670;DHT22;10494;50.868;4.180;2023-08-24T10:42:58;21.20;99.90
20670;DHT22;10494;50.868;4.180;2023-08-24T10:48:27;20.90;99.90
20670;DHT22;10494;50.868;4.180;2023-08-24T10:53:44;21.00;99.90
20670;DHT22;10494;50.868;4.180;2023-08-24T10:56:11;21.10;99.90
20670;DHT22;10494;50.868;4.180;2023-08-24T10:58:40;21.20;99.90
20670;DHT22;10494;50.868;4.180;2023-08-24T11:01:06;21.20;99.90
20670;DHT22;10494;50.868;4.180;2023-08-24T11:03:32;21.30;99.90
20670;DHT22;10494;50.868;4.180;2023-08-24T11:05:58;21.50;99.90
20670;DHT22;10494;50.868;4.180;2023-08-24T11:08:43;21.60;99.90
20670;DHT22;10494;50.868;4.180;2023-08-24T11:11:22;21.50;99.90
20670;DHT22;10494;50.868;4.180;2023-08-24T11:14:15;21.70;99.90
20670;DHT22;10494;50.868;4.180;2023-08-24T11:16:43;22.00;99.90
20670;DHT22;10494;50.868;4.180;2023-08-24T11:19:11;22.00;99.90
20670;DHT22;10494;50.868;4.180;2023-08-24T11:21:38;22.30;99.90
20670;DHT22;10494;50.868;4.180;2023-08-24T11:24:05;22.50;99.90
20670;DHT22;10494;50.868;4.180;2023-08-24T11:26:31;22.60;99.90
20670;DHT22;10494;50.868;4.180;2023-08-24T11:28:57;22.60;99.90
20670;DHT22;10494;50.868;4.180;2023-08-24T11:31:26;22.70;99.90
20670;DHT22;10494;50.868;4.180;2023-08-24T11:33:55;22.90;99.90
20670;DHT22;10494;50.868;4.180;2023-08-24T11:36:21;23.10;99.90
20670;DHT22;10494;50.868;4.180;2023-08-24T11:38:51;23.20;99.90
20670;DHT22;10494;50.868;4.180;2023-08-24T11:41:18;23.30;99.90
20670;DHT22;10494;50.868;4.180;2023-08-24T11:43:45;23.30;99.90
20670;DHT22;10494;50.868;4.180;2023-08-24T11:46:13;23.30;99.90
20670;DHT22;10494;50.868;4.180;2023-08-24T11:48:40;23.30;99.90
20670;DHT22;10494;50.868;4.180;2023-08-24T11:51:10;23.20;99.90
20670;DHT22;10494;50.868;4.180;2023-08-24T11:53:42;23.10;99.90
20670;DHT22;10494;50.868;4.180;2023-08-24T11:56:12;23.10;99.90
20670;DHT22;10494;50.868;4.180;2023-08-24T11:58:42;22.90;99.90
20670;DHT22;10494;50.868;4.180;2023-08-24T12:01:11;22.70;99.90
20670;DHT22;10494;50.868;4.180;2023-08-24T12:03:38;22.50;99.90
20670;DHT22;10494;50.868;4.180;2023-08-24T12:06:12;22.30;99.90
20670;DHT22;10494;50.868;4.180;2023-08-24T12:08:48;21.90;99.90
20670;DHT22;10494;50.868;4.180;2023-08-24T12:11:17;21.90;99.90
20670;DHT22;10494;50.868;4.180;2023-08-24T12:13:45;21.80;99.90
20670;DHT22;10494;50.868;4.180;2023-08-24T12:16:12;21.70;99.90
20670;DHT22;10494;50.868;4.180;2023-08-24T12:18:52;21.80;99.90
20670;DHT22;10494;50.868;4.180;2023-08-24T12:21:19;21.50;99.90
20670;DHT22;10494;50.868;4.180;2023-08-24T12:23:54;21.30;99.90
20670;DHT22;10494;50.868;4.180;2023-08-24T12:26:20;21.10;99.90
20670;DHT22;10494;50.868;4.180;2023-08-24T12:28:50;21.00;99.90
20670;DHT22;10494;50.868;4.180;2023-08-24T12:31:17;20.90;99.90
20670;DHT22;10494;50.868;4.180;2023-08-24T12:33:43;20.90;99.90
20670;DHT22;10494;50.868;4.180;2023-08-24T12:36:09;20.90;99.90
20670;DHT22;10494;50.868;4.180;2023-08-24T12:38:35;21.00;99.90
20670;DHT22;10494;50.868;4.180;2023-08-24T12:41:01;21.00;99.90
20670;DHT22;10494;50.868;4.180;2023-08-24T12:43:27;21.00;99.90
20670;DHT22;10494;50.868;4.180;2023-08-24T12:45:52;21.00;99.90
20670;DHT22;10494;50.868;4.180;2023-08-24T12:48:18;21.10;99.90
20670;DHT22;10494;50.868;4.180;2023-08-24T12:50:44;21.20;99.90
20670;DHT22;10494;50.868;4.180;2023-08-24T12:53:09;21.10;99.90
20670;DHT22;10494;50.868;4.180;2023-08-24T12:55:38;21.20;99.90
20670;DHT22;10494;50.868;4.180;2023-08-24T12:58:04;21.20;99.90
20670;DHT22;10494;50.868;4.180;2023-08-24T13:00:30;21.20;99.90
20670;DHT22;10494;50.868;4.180;2023-08-24T13:02:56;21.30;99.90
20670;DHT22;10494;50.868;4.180;2023-08-24T13:05:22;21.30;99.90
20670;DHT22;10494;50.868;4.180;2023-08-24T13:07:48;21.20;99.90
20670;DHT22;10494;50.868;4.180;2023-08-24T13:10:14;21.20;99.90
20670;DHT22;10494;50.868;4.180;2023-08-24T13:12:40;21.20;99.90
20670;DHT22;10494;50.868;4.180;2023-08-24T13:15:06;21.20;99.90
20670;DHT22;10494;50.868;4.180;2023-08-24T13:17:32;21.30;99.90
20670;DHT22;10494;50.868;4.180;2023-08-24T13:19:58;21.30;99.90
20670;DHT22;10494;50.868;4.180;2023-08-24T13:22:24;21.40;99.90
20670;DHT22;10494;50.868;4.180;2023-08-24T13:24:49;21.40;99.90
20670;DHT22;10494;50.868;4.180;2023-08-24T13:27:15;21.40;99.90
20670;DHT22;10494;50.868;4.180;2023-08-24T13:29:41;21.30;99.90
20670;DHT22;10494;50.868;4.180;2023-08-24T13:32:07;21.40;99.90
20670;DHT22;10494;50.868;4.180;2023-08-24T13:34:32;21.40;99.90
20670;DHT22;10494;50.868;4.180;2023-08-24T13:36:58;21.40;99.90
20670;DHT22;10494;50.868;4.180;2023-08-24T13:39:28;21.40;99.90
20670;DHT22;10494;50.868;4.180;2023-08-24T13:41:54;21.50;99.90
20670;DHT22;10494;50.868;4.180;2023-08-24T13:44:20;21.50;99.90
20670;DHT22;10494;50.868;4.180;2023-08-24T13:46:46;21.50;99.90
20670;DHT22;10494;50.868;4.180;2023-08-24T13:49:11;21.60;99.90
20670;DHT22;10494;50.868;4.180;2023-08-24T13:51:37;21.60;99.90
20670;DHT22;10494;50.868;4.180;2023-08-24T13:54:18;21.60;99.90
20670;DHT22;10494;50.868;4.180;2023-08-24T13:56:45;21.70;99.90
20670;DHT22;10494;50.868;4.180;2023-08-24T13:59:12;21.80;99.90
20670;DHT22;10494;50.868;4.180;2023-08-24T14:01:39;22.00;99.90
20670;DHT22;10494;50.868;4.180;2023-08-24T14:04:05;22.10;99.90
20670;DHT22;10494;50.868;4.180;2023-08-24T14:06:31;22.20;99.90
20670;DHT22;10494;50.868;4.180;2023-08-24T14:08:58;22.30;99.90
20670;DHT22;10494;50.868;4.180;2023-08-24T14:11:23;22.40;99.90
20670;DHT22;10494;50.868;4.180;2023-08-24T14:13:49;22.40;99.90
20670;DHT22;10494;50.868;4.180;2023-08-24T14:16:15;22.50;99.90
20670;DHT22;10494;50.868;4.180;2023-08-24T14:18:41;22.70;99.90
20670;DHT22;10494;50.868;4.180;2023-08-24T14:21:06;22.70;99.90
20670;DHT22;10494;50.868;4.180;2023-08-24T14:23:32;22.90;99.90
20670;DHT22;10494;50.868;4.180;2023-08-24T14:25:58;23.00;99.90
20670;DHT22;10494;50.868;4.180;2023-08-24T14:28:23;23.10;99.90
20670;DHT22;10494;50.868;4.180;2023-08-24T14:30:50;23.30;99.90
20670;DHT22;10494;50.868;4.180;2023-08-24T14:33:15;23.40;99.90
20670;DHT22;10494;50.868;4.180;2023-08-24T14:35:48;23.60;99.90
20670;DHT22;10494;50.868;4.180;2023-08-24T14:38:14;23.70;99.90
20670;DHT22;10494;50.868;4.180;2023-08-24T14:40:40;23.70;99.90
20670;DHT22;10494;50.868;4.180;2023-08-24T14:43:05;23.60;99.90
20670;DHT22;10494;50.868;4.180;2023-08-24T14:45:31;23.60;99.90
20670;DHT22;10494;50.868;4.180;2023-08-24T14:47:56;23.30;99.90
20670;DHT22;10494;50.868;4.180;2023-08-24T14:50:22;23.10;99.90
20670;DHT22;10494;50.868;4.180;2023-08-24T14:52:47;22.80;99.90
20670;DHT22;10494;50.868;4.180;2023-08-24T14:55:13;22.70;99.90
20670;DHT22;10494;50.868;4.180;2023-08-24T14:57:39;22.70;99.90
20670;DHT22;10494;50.868;4.180;2023-08-24T15:00:05;22.70;99.90
20670;DHT22;10494;50.868;4.180;2023-08-24T15:02:31;22.70;99.90
20670;DHT22;10494;50.868;4.180;2023-08-24T15:04:57;22.90;99.90
20670;DHT22;10494;50.868;4.180;2023-08-24T15:07:23;23.10;99.90
20670;DHT22;10494;50.868;4.180;2023-08-24T15:09:50;23.20;99.90
20670;DHT22;10494;50.868;4.180;2023-08-24T15:12:16;23.40;99.90
20670;DHT22;10494;50.868;4.180;2023-08-24T15:14:59;23.60;99.90
20670;DHT22;10494;50.868;4.180;2023-08-24T15:17:26;23.70;99.90
20670;DHT22;10494;50.868;4.180;2023-08-24T15:19:52;23.50;99.90
20670;DHT22;10494;50.868;4.180;2023-08-24T15:22:17;23.60;99.90
20670;DHT22;10494;50.868;4.180;2023-08-24T15:24:43;23.70;99.90
20670;DHT22;10494;50.868;4.180;2023-08-24T15:27:09;23.90;99.90
20670;DHT22;10494;50.868;4.180;2023-08-24T15:29:34;24.00;99.90
20670;DHT22;10494;50.868;4.180;2023-08-24T15:32:00;24.20;99.90
20670;DHT22;10494;50.868;4.180;2023-08-24T15:34:26;24.50;99.90
20670;DHT22;10494;50.868;4.180;2023-08-24T15:36:51;24.80;99.90
20670;DHT22;10494;50.868;4.180;2023-08-24T15:39:19;25.10;99.90
20670;DHT22;10494;50.868;4.180;2023-08-24T15:41:45;25.30;99.90